createdAt,value
2022-11-12T00:00:53.087Z,67.20
2022-11-12T00:03:20.204Z,67.44
2022-11-12T00:05:46.803Z,67.29
2022-11-12T00:08:13.848Z,67.79
2022-11-12T00:10:40.244Z,67.34
2022-11-12T00:13:06.730Z,67.11
2022-11-12T00:15:33.194Z,68.54
2022-11-12T00:17:59.576Z,68.75
2022-11-12T00:20:25.900Z,69.21
2022-11-12T00:22:52.270Z,68.99
2022-11-12T00:25:18.638Z,68.29
2022-11-12T00:27:45.016Z,67.61
2022-11-12T00:30:11.759Z,67.45
2022-11-12T00:32:38.282Z,67.17
2022-11-12T00:35:06.860Z,66.64
2022-11-12T00:37:35.349Z,66.98
2022-11-12T00:40:01.804Z,66.25
2022-11-12T00:42:28.113Z,67.27
2022-11-12T00:44:54.519Z,67.16
2022-11-12T00:47:20.855Z,67.16
2022-11-12T00:49:47.343Z,67.60
2022-11-12T00:52:13.814Z,67.53
2022-11-12T00:54:40.288Z,67.29
2022-11-12T00:57:06.643Z,67.23
2022-11-12T00:59:33.256Z,67.63
2022-11-12T01:01:59.645Z,66.60
2022-11-12T01:04:26.020Z,66.90
2022-11-12T01:06:52.469Z,66.78
2022-11-12T01:09:18.817Z,66.64
2022-11-12T01:11:45.167Z,67.06
2022-11-12T01:14:11.606Z,67.45
2022-11-12T01:16:40.351Z,67.50
2022-11-12T01:19:10.683Z,66.97
2022-11-12T01:21:39.985Z,67.98
2022-11-12T01:24:07.088Z,67.31
2022-11-12T01:26:33.559Z,67.49
2022-11-12T01:29:00.022Z,68.00
2022-11-12T01:31:45.589Z,68.40
2022-11-12T01:34:12.425Z,68.12
2022-11-12T01:36:39.908Z,68.07
2022-11-12T01:39:08.819Z,67.77
2022-11-12T01:41:38.582Z,67.51
2022-11-12T01:44:10.901Z,67.32
2022-11-12T01:47:10.173Z,68.54
2022-11-12T01:49:50.460Z,68.32
2022-11-12T01:52:26.212Z,67.86
2022-11-12T01:54:56.534Z,67.75
2022-11-12T01:57:34.611Z,67.76
2022-11-12T02:00:05.409Z,67.81
2022-11-12T02:02:34.322Z,68.56
2022-11-12T02:05:02.986Z,69.74
2022-11-12T02:07:30.955Z,69.20
2022-11-12T02:09:59.814Z,70.57
2022-11-12T02:12:44.734Z,69.90
2022-11-12T02:15:11.097Z,69.05
2022-11-12T02:17:37.604Z,69.11
2022-11-12T02:20:04.346Z,69.45
2022-11-12T02:22:30.801Z,69.17
2022-11-12T02:24:57.144Z,68.41
2022-11-12T02:27:24.382Z,68.68
2022-11-12T02:29:51.091Z,68.36
2022-11-12T02:32:17.430Z,68.16
2022-11-12T02:34:43.853Z,67.67
2022-11-12T02:37:10.220Z,67.79
2022-11-12T02:39:36.703Z,67.64
2022-11-12T02:42:03.685Z,67.59
2022-11-12T02:44:31.033Z,68.00
2022-11-12T02:46:57.361Z,67.89
2022-11-12T02:49:23.800Z,68.47
2022-11-12T02:51:50.201Z,68.57
2022-11-12T02:54:16.684Z,68.74
2022-11-12T02:56:43.056Z,69.43
2022-11-12T02:59:09.510Z,69.38
2022-11-12T03:01:35.831Z,69.55
2022-11-12T03:04:02.220Z,69.09
2022-11-12T03:06:28.541Z,68.68
2022-11-12T03:08:55.228Z,68.54
2022-11-12T03:11:21.650Z,69.17
2022-11-12T03:13:47.960Z,69.37
2022-11-12T03:16:14.385Z,70.16
2022-11-12T03:18:40.731Z,69.59
2022-11-12T03:21:07.228Z,69.91
2022-11-12T03:23:33.637Z,70.13
2022-11-12T03:26:03.399Z,70.49
2022-11-12T03:28:30.385Z,70.46
2022-11-12T03:31:00.421Z,70.50
2022-11-12T03:33:26.820Z,70.27
2022-11-12T03:35:53.128Z,70.58
2022-11-12T03:38:19.612Z,70.60
2022-11-12T03:40:46.053Z,71.28
2022-11-12T03:43:12.494Z,70.92
2022-11-12T03:45:38.919Z,71.12
2022-11-12T03:48:05.658Z,70.67
2022-11-12T03:50:32.058Z,70.12
2022-11-12T03:53:00.071Z,70.33
2022-11-12T03:55:28.945Z,70.29
2022-11-12T03:57:57.638Z,70.60
2022-11-12T04:00:26.701Z,70.31
2022-11-12T04:02:53.401Z,70.20
2022-11-12T04:05:38.441Z,70.11
2022-11-12T04:08:31.665Z,71.22
2022-11-12T04:10:58.117Z,71.54
2022-11-12T04:13:27.711Z,71.66
2022-11-12T04:16:17.308Z,71.68
2022-11-12T04:19:03.553Z,72.40
2022-11-12T04:21:55.932Z,71.97
2022-11-12T04:24:46.528Z,70.96
2022-11-12T04:27:27.494Z,70.68
2022-11-12T04:30:12.558Z,69.93
2022-11-12T04:32:54.556Z,70.04
2022-11-12T04:35:26.193Z,70.29
2022-11-12T04:37:52.723Z,71.40
2022-11-12T04:40:40.718Z,71.28
2022-11-12T04:43:31.548Z,71.64
2022-11-12T04:45:58.735Z,70.32
2022-11-12T04:48:25.924Z,70.01
2022-11-12T04:50:58.907Z,70.01
2022-11-12T04:53:25.914Z,69.97
2022-11-12T04:55:53.900Z,70.00
2022-11-12T04:58:20.561Z,69.68
2022-11-12T05:00:47.936Z,69.70
2022-11-12T05:03:15.120Z,70.27
2022-11-12T05:05:41.555Z,69.96
2022-11-12T05:08:08.053Z,68.47
2022-11-12T05:10:34.613Z,69.41
2022-11-12T05:13:01.031Z,68.85
2022-11-12T05:15:27.363Z,69.61
2022-11-12T05:17:53.778Z,70.22
2022-11-12T05:20:20.081Z,70.62
2022-11-12T05:23:04.521Z,69.63
2022-11-12T05:25:32.479Z,69.04
2022-11-12T05:27:58.849Z,69.67
2022-11-12T05:30:25.249Z,69.69
2022-11-12T05:32:51.604Z,69.79
2022-11-12T05:35:17.931Z,69.39
2022-11-12T05:37:44.280Z,69.63
2022-11-12T05:40:10.965Z,69.10
2022-11-12T05:42:37.297Z,69.39
2022-11-12T05:45:04.268Z,69.37
2022-11-12T05:47:30.610Z,69.53
2022-11-12T05:49:56.950Z,70.83
2022-11-12T05:52:23.264Z,70.48
2022-11-12T05:54:49.611Z,70.08
2022-11-12T05:57:15.930Z,69.93
2022-11-12T05:59:42.286Z,69.15
2022-11-12T06:02:08.697Z,69.41
2022-11-12T06:04:35.088Z,69.40
2022-11-12T06:07:04.056Z,69.20
2022-11-12T06:09:30.550Z,68.82
2022-11-12T06:11:56.919Z,69.75
2022-11-12T06:14:23.224Z,68.38
2022-11-12T06:16:49.565Z,68.83
2022-11-12T06:19:15.925Z,69.41
2022-11-12T06:21:42.257Z,70.40
2022-11-12T06:24:09.176Z,70.49
2022-11-12T06:26:36.165Z,70.62
2022-11-12T06:29:02.486Z,70.65
2022-11-12T06:31:28.812Z,69.72
2022-11-12T06:33:55.339Z,69.81
2022-11-12T06:36:21.734Z,70.33
2022-11-12T06:38:48.744Z,71.04
2022-11-12T06:41:15.683Z,71.00
2022-11-12T06:43:42.615Z,71.23
2022-11-12T06:46:13.461Z,71.14
2022-11-12T06:48:40.569Z,70.48
2022-11-12T06:51:10.405Z,70.14
2022-11-12T06:53:36.767Z,70.17
2022-11-12T06:56:05.647Z,70.84
2022-11-12T06:58:31.997Z,70.65
2022-11-12T07:01:11.144Z,70.65
2022-11-12T07:03:39.482Z,70.85
2022-11-12T07:06:11.071Z,71.02
2022-11-12T07:08:38.152Z,71.43
2022-11-12T07:11:05.419Z,71.58
2022-11-12T07:13:33.053Z,71.56
2022-11-12T07:16:00.731Z,70.77
2022-11-12T07:18:28.503Z,71.40
2022-11-12T07:21:05.402Z,70.91
2022-11-12T07:23:33.568Z,70.91
2022-11-12T07:26:02.169Z,71.28
2022-11-12T07:28:29.962Z,70.59
2022-11-12T07:30:58.679Z,70.56
2022-11-12T07:33:25.711Z,70.87
2022-11-12T07:36:02.663Z,70.79
2022-11-12T07:38:30.418Z,71.09
2022-11-12T07:41:07.102Z,71.29
2022-11-12T07:43:35.419Z,71.62
2022-11-12T07:46:10.485Z,71.65
2022-11-12T07:48:37.843Z,71.80
2022-11-12T07:51:25.023Z,71.92
2022-11-12T07:53:57.896Z,72.56
2022-11-12T07:56:27.261Z,72.10
2022-11-12T07:58:53.574Z,72.04
2022-11-12T08:01:32.348Z,71.99
2022-11-12T08:04:00.303Z,71.81
2022-11-12T08:06:27.578Z,71.85
2022-11-12T08:08:58.478Z,72.11
2022-11-12T08:11:25.216Z,72.38
2022-11-12T08:13:51.617Z,72.44
2022-11-12T08:16:18.411Z,72.33
2022-11-12T08:18:45.623Z,72.49
2022-11-12T08:21:14.550Z,72.85
2022-11-12T08:23:41.963Z,72.69
2022-11-12T08:26:11.860Z,73.31
2022-11-12T08:28:38.743Z,72.60
2022-11-12T08:31:07.308Z,72.79
2022-11-12T08:33:34.761Z,72.96
2022-11-12T08:36:05.838Z,72.77
2022-11-12T08:38:32.795Z,73.07
2022-11-12T08:41:04.133Z,73.00
2022-11-12T08:43:30.587Z,73.27
2022-11-12T08:46:00.878Z,72.76
2022-11-12T08:48:28.830Z,73.17
2022-11-12T08:50:56.001Z,73.11
2022-11-12T08:53:24.006Z,72.78
2022-11-12T08:55:55.057Z,72.99
2022-11-12T08:58:21.452Z,72.45
2022-11-12T09:00:48.011Z,72.64
2022-11-12T09:03:16.501Z,73.25
2022-11-12T09:05:43.599Z,73.56
2022-11-12T09:08:13.342Z,73.58
2022-11-12T09:10:41.417Z,73.38
2022-11-12T09:13:09.393Z,72.89
2022-11-12T09:15:38.374Z,73.30
2022-11-12T09:18:08.095Z,72.20
2022-11-12T09:20:34.905Z,71.21
2022-11-12T09:23:03.989Z,72.10
2022-11-12T09:25:30.491Z,71.86
2022-11-12T09:27:56.824Z,72.60
2022-11-12T09:30:23.544Z,72.22
2022-11-12T09:32:50.000Z,71.79
2022-11-12T09:35:16.368Z,71.93
2022-11-12T09:37:42.675Z,71.35
2022-11-12T09:40:17.676Z,71.20
2022-11-12T09:42:53.167Z,71.33
2022-11-12T09:45:29.831Z,71.16
2022-11-12T09:48:12.549Z,71.52
2022-11-12T09:50:49.632Z,71.81
2022-11-12T09:53:44.293Z,69.38
2022-11-12T09:56:12.783Z,69.98
2022-11-12T09:58:39.191Z,70.53
2022-11-12T10:01:34.836Z,70.59
2022-11-12T10:04:29.700Z,69.87
2022-11-12T10:07:05.408Z,68.82
2022-11-12T10:09:48.101Z,67.89
2022-11-12T10:12:36.234Z,66.17
2022-11-12T10:15:43.315Z,64.99
2022-11-12T10:18:34.771Z,64.11
2022-11-12T10:21:29.216Z,62.75
2022-11-12T10:23:56.909Z,62.08
2022-11-12T10:26:25.956Z,60.78
2022-11-12T10:29:14.419Z,58.53
2022-11-12T10:31:40.803Z,55.77
2022-11-12T10:34:13.352Z,52.82
2022-11-12T10:36:45.356Z,52.70
2022-11-12T10:39:34.341Z,52.87
2022-11-12T10:42:10.009Z,51.29
2022-11-12T10:44:37.830Z,51.22
2022-11-12T10:47:33.225Z,50.19
2022-11-12T10:50:13.803Z,50.28
2022-11-12T10:52:52.220Z,51.29
2022-11-12T10:55:22.586Z,50.66
2022-11-12T10:58:21.592Z,50.62
2022-11-12T11:00:59.781Z,50.26
2022-11-12T11:03:34.981Z,49.81
2022-11-12T11:06:14.412Z,49.29
2022-11-12T11:09:13.309Z,48.47
2022-11-12T11:11:51.496Z,48.21
2022-11-12T11:14:32.838Z,47.78
2022-11-12T11:17:08.283Z,47.29
2022-11-12T11:19:40.876Z,47.71
2022-11-12T11:22:18.803Z,47.83
2022-11-12T11:25:10.385Z,47.90
2022-11-12T11:28:05.197Z,47.86
2022-11-12T11:30:32.454Z,49.08
2022-11-12T11:33:30.935Z,51.90
2022-11-12T11:36:12.445Z,54.56
2022-11-12T11:38:39.513Z,55.82
2022-11-12T11:41:17.474Z,57.19
2022-11-12T11:43:59.812Z,58.74
2022-11-12T11:46:47.499Z,59.62
2022-11-12T11:49:32.536Z,59.92
2022-11-12T11:52:35.634Z,60.19
2022-11-12T11:55:13.861Z,60.39
2022-11-12T11:57:45.791Z,60.39
2022-11-12T12:00:20.767Z,60.57
2022-11-12T12:03:08.929Z,60.64
2022-11-12T12:05:54.092Z,60.33
2022-11-12T12:08:49.655Z,60.18
2022-11-12T12:11:58.749Z,60.60
2022-11-12T12:14:43.827Z,60.64
2022-11-12T12:17:23.422Z,60.92
2022-11-12T12:20:19.085Z,61.05
2022-11-12T12:22:51.285Z,60.58
2022-11-12T12:25:26.308Z,61.05
2022-11-12T12:28:05.747Z,61.15
2022-11-12T12:30:36.451Z,60.98
2022-11-12T12:33:14.953Z,60.50
2022-11-12T12:35:51.669Z,60.69
2022-11-12T12:39:02.722Z,61.28
2022-11-12T12:41:45.488Z,61.79
2022-11-12T12:44:12.421Z,61.15
2022-11-12T12:46:56.726Z,61.68
2022-11-12T12:49:32.712Z,61.34
2022-11-12T12:51:59.678Z,61.00
2022-11-12T12:54:35.335Z,61.51
2022-11-12T12:57:03.982Z,62.23
2022-11-12T12:59:30.450Z,61.85
2022-11-12T13:02:01.092Z,61.57
2022-11-12T13:04:50.230Z,61.47
2022-11-12T13:07:16.588Z,61.25
2022-11-12T13:09:43.260Z,61.11
2022-11-12T13:12:09.732Z,61.05
2022-11-12T13:14:36.052Z,61.21
2022-11-12T13:17:06.810Z,61.04
2022-11-12T13:19:44.083Z,60.97
2022-11-12T13:22:19.311Z,61.17
2022-11-12T13:25:20.072Z,61.33
2022-11-12T13:27:46.990Z,60.92
2022-11-12T13:30:13.230Z,60.94
2022-11-12T13:32:48.832Z,60.56
2022-11-12T13:35:26.661Z,60.28
2022-11-12T13:38:03.468Z,60.53
2022-11-12T13:40:29.788Z,60.60
2022-11-12T13:43:11.471Z,60.13
2022-11-12T13:45:45.108Z,60.53
2022-11-12T13:48:21.536Z,60.70
2022-11-12T13:50:54.945Z,60.76
2022-11-12T13:53:27.730Z,60.91
2022-11-12T13:55:54.921Z,60.63
2022-11-12T13:58:33.521Z,60.41
2022-11-12T14:01:04.867Z,60.35
2022-11-12T14:03:41.485Z,60.49
2022-11-12T14:06:16.587Z,60.86
2022-11-12T14:09:02.753Z,60.87
2022-11-12T14:11:46.193Z,61.08
2022-11-12T14:14:26.892Z,60.81
2022-11-12T14:17:05.400Z,60.88
2022-11-12T14:19:54.152Z,61.37
2022-11-12T14:22:22.010Z,62.02
2022-11-12T14:24:59.941Z,62.21
2022-11-12T14:27:26.237Z,62.55
2022-11-12T14:30:10.997Z,62.41
2022-11-12T14:32:38.645Z,62.32
2022-11-12T14:35:35.270Z,63.13
2022-11-12T14:38:23.420Z,62.62
2022-11-12T14:41:11.458Z,62.29
2022-11-12T14:43:42.760Z,62.03
2022-11-12T14:46:21.652Z,61.93
2022-11-12T14:48:54.170Z,61.96
2022-11-12T14:51:22.317Z,61.79
2022-11-12T14:53:56.481Z,62.00
2022-11-12T14:56:45.115Z,62.13
2022-11-12T14:59:13.934Z,62.07
2022-11-12T15:02:21.775Z,62.04
2022-11-12T15:04:36.889Z,62.37
2022-11-12T15:07:03.307Z,62.93
2022-11-12T15:09:35.589Z,63.28
2022-11-12T15:12:09.347Z,63.47
2022-11-12T15:14:35.738Z,63.56
2022-11-12T15:17:04.666Z,63.65
2022-11-12T15:19:31.408Z,63.71
2022-11-12T15:22:03.064Z,63.68
2022-11-12T15:24:35.070Z,63.96
2022-11-12T15:27:22.974Z,63.91
2022-11-12T15:29:49.297Z,64.02
2022-11-12T15:32:30.829Z,63.99
2022-11-12T15:34:57.144Z,64.18
2022-11-12T15:37:27.118Z,64.31
2022-11-12T15:39:58.138Z,64.62
2022-11-12T15:42:26.495Z,64.76
2022-11-12T15:44:59.375Z,65.12
2022-11-12T15:47:25.724Z,65.29
2022-11-12T15:49:54.151Z,65.56
2022-11-12T15:52:20.584Z,66.10
2022-11-12T15:54:47.619Z,66.17
2022-11-12T15:57:27.001Z,66.35
2022-11-12T16:00:30.674Z,66.23
2022-11-12T16:03:00.020Z,66.37
2022-11-12T16:05:26.384Z,66.43
2022-11-12T16:07:52.760Z,66.66
2022-11-12T16:10:19.632Z,66.70
2022-11-12T16:12:47.973Z,66.77
2022-11-12T16:15:23.244Z,67.22
2022-11-12T16:17:49.567Z,67.65
2022-11-12T16:20:21.210Z,67.56
2022-11-12T16:22:49.005Z,67.60
2022-11-12T16:25:15.958Z,67.88
2022-11-12T16:27:42.871Z,68.07
2022-11-12T16:30:24.405Z,68.08
2022-11-12T16:32:50.741Z,68.44
2022-11-12T16:35:17.630Z,68.30
2022-11-12T16:37:45.419Z,68.56
2022-11-12T16:40:24.664Z,68.72
2022-11-12T16:42:51.042Z,68.79
2022-11-12T16:45:20.300Z,68.91
2022-11-12T16:47:55.440Z,69.00
2022-11-12T16:50:24.681Z,68.90
2022-11-12T16:52:51.277Z,68.83
2022-11-12T16:55:17.629Z,68.76
2022-11-12T16:57:44.098Z,69.56
2022-11-12T17:00:15.436Z,69.76
2022-11-12T17:02:46.119Z,69.50
2022-11-12T17:05:24.165Z,69.33
2022-11-12T17:07:55.377Z,69.17
2022-11-12T17:10:25.215Z,68.60
2022-11-12T17:12:52.322Z,68.53
2022-11-12T17:15:18.933Z,68.72
2022-11-12T17:17:45.435Z,68.68
2022-11-12T17:20:11.796Z,68.60
2022-11-12T17:22:38.215Z,68.44
2022-11-12T17:25:06.628Z,67.89
2022-11-12T17:27:33.028Z,68.06
2022-11-12T17:29:59.385Z,68.09
2022-11-12T17:32:25.759Z,67.94
2022-11-12T17:34:52.079Z,67.63
2022-11-12T17:37:18.467Z,67.30
2022-11-12T17:39:44.883Z,67.34
2022-11-12T17:42:11.214Z,67.17
2022-11-12T17:44:37.560Z,67.54
2022-11-12T17:47:03.981Z,67.58
2022-11-12T17:49:30.317Z,67.59
2022-11-12T17:51:56.640Z,67.64
2022-11-12T17:54:22.995Z,67.72
2022-11-12T17:56:49.323Z,67.87
2022-11-12T17:59:15.643Z,67.83
2022-11-12T18:01:41.995Z,67.62
2022-11-12T18:04:10.286Z,67.62
2022-11-12T18:06:36.788Z,67.79
2022-11-12T18:09:11.780Z,67.97
2022-11-12T18:11:56.672Z,68.56
2022-11-12T18:14:23.243Z,68.57
2022-11-12T18:16:49.670Z,68.69
2022-11-12T18:19:16.074Z,68.84
2022-11-12T18:21:42.542Z,69.05
2022-11-12T18:24:14.301Z,68.98
2022-11-12T18:26:41.054Z,69.28
2022-11-12T18:29:07.535Z,69.40
2022-11-12T18:31:33.905Z,69.39
2022-11-12T18:34:00.372Z,69.17
2022-11-12T18:36:26.803Z,69.50
2022-11-12T18:38:54.663Z,69.11
2022-11-12T18:41:25.583Z,68.97
2022-11-12T18:43:53.279Z,68.76
2022-11-12T18:46:19.947Z,68.87
2022-11-12T18:48:47.296Z,68.63
2022-11-12T18:51:15.675Z,68.67
2022-11-12T18:53:42.947Z,68.92
2022-11-12T18:56:13.119Z,69.18
2022-11-12T18:58:39.509Z,69.18
2022-11-12T19:01:17.719Z,69.26
2022-11-12T19:03:44.346Z,69.11
2022-11-12T19:06:12.547Z,69.46
2022-11-12T19:08:39.195Z,69.63
2022-11-12T19:11:16.398Z,69.84
2022-11-12T19:13:43.035Z,69.86
2022-11-12T19:16:14.151Z,69.89
2022-11-12T19:18:41.748Z,70.02
2022-11-12T19:21:17.143Z,70.01
2022-11-12T19:23:43.559Z,70.04
2022-11-12T19:26:15.087Z,69.98
2022-11-12T19:28:42.336Z,69.77
2022-11-12T19:31:14.383Z,69.59
2022-11-12T19:33:40.979Z,69.39
2022-11-12T19:36:10.046Z,69.46
2022-11-12T19:38:36.614Z,69.50
2022-11-12T19:41:04.854Z,69.63
2022-11-12T19:43:31.645Z,69.62
2022-11-12T19:45:58.098Z,69.47
2022-11-12T19:48:25.394Z,69.49
2022-11-12T19:50:52.299Z,69.25
2022-11-12T19:53:19.191Z,69.21
2022-11-12T19:55:45.523Z,68.82
2022-11-12T19:58:11.839Z,68.32
2022-11-12T20:00:38.382Z,68.55
2022-11-12T20:03:10.050Z,67.98
2022-11-12T20:05:36.478Z,68.22
2022-11-12T20:08:02.858Z,68.06
2022-11-12T20:10:29.352Z,67.86
2022-11-12T20:12:55.765Z,67.99
2022-11-12T20:15:22.169Z,67.68
2022-11-12T20:17:48.453Z,67.07
2022-11-12T20:20:15.112Z,67.39
2022-11-12T20:22:41.430Z,67.05
2022-11-12T20:25:08.176Z,66.97
2022-11-12T20:27:34.552Z,66.51
2022-11-12T20:30:00.887Z,66.86
2022-11-12T20:32:27.267Z,66.92
2022-11-12T20:34:53.669Z,67.11
2022-11-12T20:37:20.104Z,67.24
2022-11-12T20:39:46.570Z,66.88
2022-11-12T20:42:12.975Z,66.87
2022-11-12T20:44:39.335Z,66.52
2022-11-12T20:47:05.650Z,66.48
2022-11-12T20:49:31.999Z,66.23
2022-11-12T20:51:58.317Z,66.04
2022-11-12T20:54:24.721Z,66.20
2022-11-12T20:56:51.138Z,66.19
2022-11-12T20:59:17.488Z,66.43
2022-11-12T21:01:43.999Z,66.22
2022-11-12T21:04:12.244Z,66.28
2022-11-12T21:06:38.917Z,66.32
2022-11-12T21:09:05.386Z,66.28
2022-11-12T21:11:31.758Z,66.41
2022-11-12T21:14:00.555Z,66.84
2022-11-12T21:16:27.021Z,66.90
2022-11-12T21:18:53.359Z,67.07
2022-11-12T21:21:21.113Z,67.15
2022-11-12T21:23:50.128Z,67.03
2022-11-12T21:26:19.841Z,67.09
2022-11-12T21:28:52.416Z,67.49
2022-11-12T21:31:21.421Z,67.20
2022-11-12T21:33:55.462Z,67.65
2022-11-12T21:36:23.301Z,67.41
2022-11-12T21:38:49.821Z,67.32
2022-11-12T21:41:18.992Z,67.64
2022-11-12T21:43:46.168Z,67.30
2022-11-12T21:46:21.298Z,67.41
2022-11-12T21:48:52.211Z,67.31
2022-11-12T21:51:28.790Z,66.92
2022-11-12T21:53:56.051Z,66.81
2022-11-12T21:56:22.882Z,66.70
2022-11-12T21:58:49.260Z,66.89
2022-11-12T22:01:25.135Z,67.38
2022-11-12T22:03:53.233Z,67.19
2022-11-12T22:06:21.440Z,67.02
2022-11-12T22:08:51.517Z,67.00
2022-11-12T22:11:18.170Z,66.89
2022-11-12T22:13:44.514Z,67.10
2022-11-12T22:16:19.705Z,67.21
2022-11-12T22:18:47.699Z,67.24
2022-11-12T22:21:22.754Z,67.44
2022-11-12T22:23:49.798Z,67.20
2022-11-12T22:26:20.526Z,67.24
2022-11-12T22:28:47.795Z,66.96
2022-11-12T22:31:17.115Z,67.19
2022-11-12T22:33:43.655Z,67.13
2022-11-12T22:36:12.742Z,67.35
2022-11-12T22:38:41.745Z,67.50
2022-11-12T22:41:13.843Z,67.16
2022-11-12T22:43:40.974Z,67.13
2022-11-12T22:46:21.973Z,67.34
2022-11-12T22:48:48.708Z,67.39
2022-11-12T22:51:17.946Z,67.09
2022-11-12T22:53:44.679Z,67.40
2022-11-12T22:56:13.983Z,67.44
2022-11-12T22:58:43.086Z,68.01
2022-11-12T23:01:19.035Z,67.62
2022-11-12T23:03:45.463Z,67.67
2022-11-12T23:06:12.211Z,67.78
2022-11-12T23:08:38.576Z,67.72
2022-11-12T23:11:10.507Z,68.02
2022-11-12T23:13:37.863Z,68.51
2022-11-12T23:16:12.901Z,68.54
2022-11-12T23:18:39.646Z,68.30
2022-11-12T23:21:15.504Z,68.43
2022-11-12T23:23:44.092Z,68.73
2022-11-12T23:26:13.685Z,68.68
2022-11-12T23:28:40.429Z,68.81
2022-11-12T23:31:13.734Z,68.49
2022-11-12T23:33:44.418Z,69.27
2022-11-12T23:36:11.287Z,68.95
2022-11-12T23:38:37.631Z,68.84
2022-11-12T23:41:05.042Z,68.71
2022-11-12T23:43:31.772Z,68.89
2022-11-12T23:45:58.587Z,68.80
2022-11-12T23:48:25.239Z,68.47
2022-11-12T23:50:59.652Z,68.02
2022-11-12T23:53:25.985Z,67.93
2022-11-12T23:55:52.668Z,67.57
2022-11-12T23:58:19.006Z,67.51
